NowCast ZoneCast Warnings/Advisories Hourly Track Special Radar
Punta Gorda, Charlotte County Airport, United States  Lat: 26.92N, Lon: 81.99W
ICAO Used: KPGD
Current Conditions
Updated: 2:53 AM EST THU APR 24 2014
Sun & Moon Information:
FOG and MIST
Fog And Mist
Temp: 63°F
Humidity: 93%
Wind Speed: CALM
Barometer: 29.97 in.
Dewpoint: 61°F
Heat Index: 63°F
Wind Chill: 63°F
Civil Twilight: 5:30 AM EST Moon Phase:
Waning Crescent Moon
Waning Crescent Moon
Sunrise: 5:54 AM EST
Sunset: 6:56 PM EST
Civil Twilight: 7:20 PM EST
Forecast for Punta Gorda, Charlotte County Airport, FL, United States:
(Forecast based on TAF for )
0800 AM EST THU APR 24 2014
  
MORNING AFTERNOON EVENING OVERNIGHT
Partly Cloudy Partly Cloudy Partly Cloudy Partly Cloudy
Partly
Cloudy
Partly
Cloudy
Partly
Cloudy
Partly
Cloudy
TAF based forecast:
Dated: 0800 AM EST THU APR 24 2014
Morning...Turning partly cloudy with winds from the northnortheast at 7 mph.
Afternoon...Partly cloudy with winds from the northnortheast at 7 mph.
Evening...Partly cloudy with winds from the southsouthwest at 13 mph.
Overnight...Partly cloudy with winds from the southsouthwest at 13 mph.
Original Encoded TAF:
Dated: 0800 AM EST THU APR 24 2014
KPGD 240716Z 2407/2506 VRB03KT 4SM BR FEW007 
     FM241300 02006KT P6SM FEW250 
     FM241700 25011KT P6SM FEW035 SCT250 
     FM250300 VRB03KT P6SM FEW250